Check out our new PWSWeather beta!
PWSweather.com
Personal Weather Stations
Station Observations
KOMOKA
Komoka Village, Komoka, ON N0L IRO

Komoka VillageKomoka, ON N0L IRO

Lat: 42.9542444, Lon: -81.4348861

Elevation: 805

Station Type: Davis Vantage Pro 2

www.komokaweather.com

High Low Average
Temperature 37.8°F3.2°C 14.7°F-9.6°C 28.1°F-2.2°C
Dew Point 25.2°F-3.8°C 9.3°F-12.6°C 18.7°F-7.4°C
Winds 8.0 mph 12.9 kmh Calm Calm 3.0 mph SE4.8 kmh SE
Wind Gusts 17.0 mph27.4 kmh -- 7.0 mph11.3 kmh
Humidity 80% 54% 68%
Pressure 30.39 in1029.1 mb 30.24 in1024.0 mb -
Precipitation 0.26 in6.6 mm - -
Hour Temp Dew Point Humidity Winds Wind Gusts Pressure Precip Precip Rate Daily Precip Total
12:12 AM 23.2°F-4.9°C 17.6°F-8.0°C 79% 1.0 mph WSW1.6 kmh WSW 4.0 mph6.4 kmh 30.26 in1024.7 mb 0.00 in0.0 mm 0.00 in0.0 mm 0.00 in0.0 mm
12:19 AM 23.2°F-4.9°C 17.6°F-8.0°C 79% 1.0 mph WSW1.6 kmh WSW 4.0 mph6.4 kmh 30.26 in1024.7 mb 0.00 in0.0 mm 0.00 in0.0 mm 0.00 in0.0 mm
12:26 AM 22.6°F-5.2°C 16.9°F-8.4°C 78% 1.0 mph WSW1.6 kmh WSW 3.0 mph4.8 kmh 30.26 in1024.7 mb 0.00 in0.0 mm 0.00 in0.0 mm 0.00 in0.0 mm
12:33 AM 22.1°F-5.5°C 16.3°F-8.7°C 78% Calm Calm 3.0 mph4.8 kmh 30.26 in1024.7 mb 0.00 in0.0 mm 0.00 in0.0 mm 0.00 in0.0 mm
12:44 AM 21.6°F-5.8°C 15.1°F-9.4°C 76% Calm Calm 1.0 mph1.6 kmh 30.27 in1025.1 mb 0.00 in0.0 mm 0.00 in0.0 mm 0.00 in0.0 mm
12:51 AM 21.6°F-5.8°C 14.7°F-9.6°C 75% Calm Calm 3.0 mph4.8 kmh 30.27 in1025.1 mb 0.00 in0.0 mm 0.00 in0.0 mm 0.00 in0.0 mm
01:10 AM 21.6°F-5.8°C 14.4°F-9.8°C 73% 1.0 mph W1.6 kmh W 4.0 mph6.4 kmh 30.27 in1025.1 mb 0.00 in0.0 mm 0.00 in0.0 mm 0.00 in0.0 mm
01:17 AM 21.6°F-5.8°C 14.2°F-9.9°C 73% Calm Calm 3.0 mph4.8 kmh 30.27 in1025.1 mb 0.00 in0.0 mm 0.00 in0.0 mm 0.00 in0.0 mm
01:24 AM 21.9°F-5.6°C 14.5°F-9.7°C 73% 1.0 mph WNW1.6 kmh WNW 3.0 mph4.8 kmh 30.27 in1025.1 mb 0.00 in0.0 mm 0.00 in0.0 mm 0.00 in0.0 mm
01:31 AM 22.5°F-5.3°C 15.1°F-9.4°C 73% 1.0 mph WNW1.6 kmh WNW 3.0 mph4.8 kmh 30.28 in1025.4 mb 0.00 in0.0 mm 0.00 in0.0 mm 0.00 in0.0 mm
01:38 AM 22.6°F-5.2°C 15.6°F-9.1°C 74% 1.0 mph WNW1.6 kmh WNW 3.0 mph4.8 kmh 30.28 in1025.4 mb 0.00 in0.0 mm 0.00 in0.0 mm 0.00 in0.0 mm
01:45 AM 22.6°F-5.2°C 15.6°F-9.1°C 74% Calm Calm 3.0 mph4.8 kmh 30.28 in1025.4 mb 0.00 in0.0 mm 0.00 in0.0 mm 0.00 in0.0 mm
01:52 AM 22.6°F-5.2°C 15.8°F-9.0°C 75% Calm Calm 3.0 mph4.8 kmh 30.28 in1025.4 mb 0.00 in0.0 mm 0.00 in0.0 mm 0.00 in0.0 mm
01:59 AM 22.6°F-5.2°C 15.3°F-9.3°C 73% Calm Calm 3.0 mph4.8 kmh 30.28 in1025.4 mb 0.00 in0.0 mm 0.00 in0.0 mm 0.00 in0.0 mm
02:06 AM 22.1°F-5.5°C 14.7°F-9.6°C 73% Calm Calm 3.0 mph4.8 kmh 30.28 in1025.4 mb 0.00 in0.0 mm 0.00 in0.0 mm 0.00 in0.0 mm
02:13 AM 21.6°F-5.8°C 14.5°F-9.7°C 74% Calm Calm 3.0 mph4.8 kmh 30.28 in1025.4 mb 0.00 in0.0 mm 0.00 in0.0 mm 0.00 in0.0 mm
02:20 AM 21.6°F-5.8°C 14.5°F-9.7°C 74% 1.0 mph W1.6 kmh W 3.0 mph4.8 kmh 30.28 in1025.4 mb 0.00 in0.0 mm 0.00 in0.0 mm 0.00 in0.0 mm
02:27 AM 21.6°F-5.8°C 14.4°F-9.8°C 73% 1.0 mph W1.6 kmh W 4.0 mph6.4 kmh 30.28 in1025.4 mb 0.00 in0.0 mm 0.00 in0.0 mm 0.00 in0.0 mm
02:34 AM 21.6°F-5.8°C 14.4°F-9.8°C 73% 1.0 mph W1.6 kmh W 4.0 mph6.4 kmh 30.28 in1025.4 mb 0.00 in0.0 mm 0.00 in0.0 mm 0.00 in0.0 mm
02:41 AM 21.6°F-5.8°C 14.4°F-9.8°C 73% Calm Calm 3.0 mph4.8 kmh 30.29 in1025.7 mb 0.00 in0.0 mm 0.00 in0.0 mm 0.00 in0.0 mm
02:48 AM 21.6°F-5.8°C 14.2°F-9.9°C 73% Calm Calm 3.0 mph4.8 kmh 30.29 in1025.7 mb 0.00 in0.0 mm 0.00 in0.0 mm 0.00 in0.0 mm
02:55 AM 21.0°F-6.1°C 14.2°F-9.9°C 74% Calm Calm 1.0 mph1.6 kmh 30.29 in1025.7 mb 0.00 in0.0 mm 0.00 in0.0 mm 0.00 in0.0 mm
03:02 AM 20.5°F-6.4°C 13.5°F-10.3°C 74% Calm Calm -- 30.29 in1025.7 mb 0.00 in0.0 mm 0.00 in0.0 mm 0.00 in0.0 mm
03:09 AM 19.9°F-6.7°C 12.9°F-10.6°C 74% Calm Calm -- 30.29 in1025.7 mb 0.00 in0.0 mm 0.00 in0.0 mm 0.00 in0.0 mm
03:16 AM 19.2°F-7.1°C 12.7°F-10.7°C 75% Calm Calm -- 30.29 in1025.7 mb 0.00 in0.0 mm 0.00 in0.0 mm 0.00 in0.0 mm
03:23 AM 19.0°F-7.2°C 12.7°F-10.7°C 76% Calm Calm -- 30.29 in1025.7 mb 0.00 in0.0 mm 0.00 in0.0 mm 0.00 in0.0 mm
03:30 AM 18.7°F-7.4°C 12.4°F-10.9°C 76% Calm Calm -- 30.29 in1025.7 mb 0.00 in0.0 mm 0.00 in0.0 mm 0.00 in0.0 mm
03:37 AM 18.5°F-7.5°C 12.2°F-11.0°C 76% Calm Calm -- 30.29 in1025.7 mb 0.00 in0.0 mm 0.00 in0.0 mm 0.00 in0.0 mm
03:44 AM 18.3°F-7.6°C 12.0°F-11.1°C 76% Calm Calm -- 30.29 in1025.7 mb 0.00 in0.0 mm 0.00 in0.0 mm 0.00 in0.0 mm
03:51 AM 18.0°F-7.8°C 11.8°F-11.2°C 77% Calm Calm -- 30.29 in1025.7 mb 0.00 in0.0 mm 0.00 in0.0 mm 0.00 in0.0 mm
03:58 AM 17.4°F-8.1°C 11.7°F-11.3°C 78% Calm Calm -- 30.30 in1026.1 mb 0.00 in0.0 mm 0.00 in0.0 mm 0.00 in0.0 mm
04:05 AM 16.9°F-8.4°C 11.3°F-11.5°C 78% Calm Calm -- 30.30 in1026.1 mb 0.00 in0.0 mm 0.00 in0.0 mm 0.00 in0.0 mm
04:12 AM 16.3°F-8.7°C 10.6°F-11.9°C 78% Calm Calm -- 30.30 in1026.1 mb 0.00 in0.0 mm 0.00 in0.0 mm 0.00 in0.0 mm
04:19 AM 16.3°F-8.7°C 10.8°F-11.8°C 78% Calm Calm -- 30.30 in1026.1 mb 0.00 in0.0 mm 0.00 in0.0 mm 0.00 in0.0 mm
04:26 AM 16.3°F-8.7°C 10.9°F-11.7°C 79% Calm Calm -- 30.30 in1026.1 mb 0.00 in0.0 mm 0.00 in0.0 mm 0.00 in0.0 mm
04:33 AM 16.2°F-8.8°C 10.8°F-11.8°C 79% Calm Calm -- 30.31 in1026.4 mb 0.00 in0.0 mm 0.00 in0.0 mm 0.00 in0.0 mm
04:40 AM 16.0°F-8.9°C 10.6°F-11.9°C 79% Calm Calm -- 30.31 in1026.4 mb 0.00 in0.0 mm 0.00 in0.0 mm 0.00 in0.0 mm
04:47 AM 15.4°F-9.2°C 10.2°F-12.1°C 79% Calm Calm -- 30.31 in1026.4 mb 0.00 in0.0 mm 0.00 in0.0 mm 0.00 in0.0 mm
04:54 AM 15.3°F-9.3°C 9.9°F-12.3°C 79% Calm Calm -- 30.31 in1026.4 mb 0.00 in0.0 mm 0.00 in0.0 mm 0.00 in0.0 mm
05:01 AM 14.9°F-9.5°C 9.5°F-12.5°C 79% Calm Calm -- 30.31 in1026.4 mb 0.00 in0.0 mm 0.00 in0.0 mm 0.00 in0.0 mm
05:08 AM 14.7°F-9.6°C 9.3°F-12.6°C 79% Calm Calm -- 30.32 in1026.8 mb 0.00 in0.0 mm 0.00 in0.0 mm 0.00 in0.0 mm
05:15 AM 15.1°F-9.4°C 9.7°F-12.4°C 79% Calm Calm -- 30.32 in1026.8 mb 0.00 in0.0 mm 0.00 in0.0 mm 0.00 in0.0 mm
05:22 AM 14.9°F-9.5°C 9.5°F-12.5°C 79% Calm Calm -- 30.32 in1026.8 mb 0.00 in0.0 mm 0.00 in0.0 mm 0.00 in0.0 mm
05:29 AM 14.7°F-9.6°C 9.3°F-12.6°C 79% Calm Calm -- 30.32 in1026.8 mb 0.00 in0.0 mm 0.00 in0.0 mm 0.00 in0.0 mm
05:36 AM 14.9°F-9.5°C 9.5°F-12.5°C 79% Calm Calm -- 30.32 in1026.8 mb 0.00 in0.0 mm 0.00 in0.0 mm 0.00 in0.0 mm
05:43 AM 15.3°F-9.3°C 10.2°F-12.1°C 80% Calm Calm -- 30.32 in1026.8 mb 0.00 in0.0 mm 0.00 in0.0 mm 0.00 in0.0 mm
05:50 AM 15.4°F-9.2°C 10.4°F-12.0°C 80% Calm Calm -- 30.33 in1027.1 mb 0.00 in0.0 mm 0.00 in0.0 mm 0.00 in0.0 mm
05:57 AM 15.6°F-9.1°C 10.6°F-11.9°C 80% Calm Calm -- 30.33 in1027.1 mb 0.00 in0.0 mm 0.00 in0.0 mm 0.00 in0.0 mm
06:04 AM 16.0°F-8.9°C 10.8°F-11.8°C 80% Calm Calm -- 30.33 in1027.1 mb 0.00 in0.0 mm 0.00 in0.0 mm 0.00 in0.0 mm
06:11 AM 16.2°F-8.8°C 11.1°F-11.6°C 80% Calm Calm -- 30.33 in1027.1 mb 0.00 in0.0 mm 0.00 in0.0 mm 0.00 in0.0 mm
06:18 AM 16.2°F-8.8°C 10.8°F-11.8°C 79% Calm Calm -- 30.33 in1027.1 mb 0.00 in0.0 mm 0.00 in0.0 mm 0.00 in0.0 mm
06:25 AM 16.2°F-8.8°C 10.8°F-11.8°C 79% Calm Calm -- 30.34 in1027.4 mb 0.00 in0.0 mm 0.00 in0.0 mm 0.00 in0.0 mm
06:32 AM 16.2°F-8.8°C 11.1°F-11.6°C 80% Calm Calm -- 30.34 in1027.4 mb 0.00 in0.0 mm 0.00 in0.0 mm 0.00 in0.0 mm
06:39 AM 16.3°F-8.7°C 10.9°F-11.7°C 79% Calm Calm -- 30.34 in1027.4 mb 0.00 in0.0 mm 0.00 in0.0 mm 0.00 in0.0 mm
06:46 AM 16.9°F-8.4°C 11.5°F-11.4°C 79% Calm Calm -- 30.34 in1027.4 mb 0.00 in0.0 mm 0.00 in0.0 mm 0.00 in0.0 mm
06:53 AM 17.2°F-8.2°C 11.8°F-11.2°C 79% Calm Calm -- 30.34 in1027.4 mb 0.00 in0.0 mm 0.00 in0.0 mm 0.00 in0.0 mm
07:00 AM 17.8°F-7.9°C 12.4°F-10.9°C 79% Calm Calm -- 30.34 in1027.4 mb 0.00 in0.0 mm 0.00 in0.0 mm 0.00 in0.0 mm
07:07 AM 18.1°F-7.7°C 12.7°F-10.7°C 79% Calm Calm -- 30.34 in1027.4 mb 0.00 in0.0 mm 0.00 in0.0 mm 0.00 in0.0 mm
07:14 AM 18.9°F-7.3°C 13.3°F-10.4°C 79% Calm Calm -- 30.35 in1027.8 mb 0.00 in0.0 mm 0.00 in0.0 mm 0.00 in0.0 mm
07:21 AM 19.0°F-7.2°C 13.3°F-10.4°C 78% Calm Calm -- 30.35 in1027.8 mb 0.00 in0.0 mm 0.00 in0.0 mm 0.00 in0.0 mm
07:28 AM 19.6°F-6.9°C 13.8°F-10.1°C 78% Calm Calm -- 30.35 in1027.8 mb 0.00 in0.0 mm 0.00 in0.0 mm 0.00 in0.0 mm
07:35 AM 20.3°F-6.5°C 14.2°F-9.9°C 77% Calm Calm -- 30.36 in1028.1 mb 0.00 in0.0 mm 0.00 in0.0 mm 0.00 in0.0 mm
07:42 AM 21.4°F-5.9°C 15.1°F-9.4°C 76% Calm Calm -- 30.36 in1028.1 mb 0.00 in0.0 mm 0.00 in0.0 mm 0.00 in0.0 mm
07:49 AM 22.5°F-5.3°C 15.6°F-9.1°C 75% Calm Calm -- 30.36 in1028.1 mb 0.00 in0.0 mm 0.00 in0.0 mm 0.00 in0.0 mm
07:56 AM 22.8°F-5.1°C 15.8°F-9.0°C 74% Calm Calm -- 30.36 in1028.1 mb 0.00 in0.0 mm 0.00 in0.0 mm 0.00 in0.0 mm
08:03 AM 23.7°F-4.6°C 16.7°F-8.5°C 74% Calm Calm 5.0 mph8.0 kmh 30.36 in1028.1 mb 0.00 in0.0 mm 0.00 in0.0 mm 0.00 in0.0 mm
08:10 AM 24.1°F-4.4°C 16.5°F-8.6°C 73% 1.0 mph WSW1.6 kmh WSW 5.0 mph8.0 kmh 30.36 in1028.1 mb 0.00 in0.0 mm 0.00 in0.0 mm 0.00 in0.0 mm
08:17 AM 24.3°F-4.3°C 16.9°F-8.4°C 73% 1.0 mph WSW1.6 kmh WSW 4.0 mph6.4 kmh 30.36 in1028.1 mb 0.00 in0.0 mm 0.00 in0.0 mm 0.00 in0.0 mm
08:24 AM 25.3°F-3.7°C 17.6°F-8.0°C 72% 3.0 mph WSW4.8 kmh WSW 5.0 mph8.0 kmh 30.36 in1028.1 mb 0.00 in0.0 mm 0.00 in0.0 mm 0.00 in0.0 mm
08:31 AM 25.9°F-3.4°C 17.6°F-8.0°C 71% 3.0 mph WSW4.8 kmh WSW 7.0 mph11.3 kmh 30.36 in1028.1 mb 0.00 in0.0 mm 0.00 in0.0 mm 0.00 in0.0 mm
08:38 AM 26.1°F-3.3°C 17.6°F-8.0°C 70% 3.0 mph WSW4.8 kmh WSW 5.0 mph8.0 kmh 30.36 in1028.1 mb 0.00 in0.0 mm 0.00 in0.0 mm 0.00 in0.0 mm
08:45 AM 26.4°F-3.1°C 18.3°F-7.6°C 71% 3.0 mph WSW4.8 kmh WSW 4.0 mph6.4 kmh 30.37 in1028.4 mb 0.00 in0.0 mm 0.00 in0.0 mm 0.00 in0.0 mm
08:52 AM 27.1°F-2.7°C 18.3°F-7.6°C 69% 3.0 mph WSW4.8 kmh WSW 7.0 mph11.3 kmh 30.37 in1028.4 mb 0.01 in0.3 mm 0.09 in2.3 mm 0.01 in0.3 mm
08:59 AM 27.3°F-2.6°C 18.9°F-7.3°C 70% 4.0 mph WSW6.4 kmh WSW 7.0 mph11.3 kmh 30.37 in1028.4 mb 0.01 in0.3 mm 0.00 in0.0 mm 0.01 in0.3 mm
09:06 AM 27.7°F-2.4°C 18.7°F-7.4°C 69% 4.0 mph WSW6.4 kmh WSW 7.0 mph11.3 kmh 30.38 in1028.8 mb 0.02 in0.5 mm 0.01 in0.3 mm 0.02 in0.5 mm
09:13 AM 28.0°F-2.2°C 19.2°F-7.1°C 69% 4.0 mph WSW6.4 kmh WSW 7.0 mph11.3 kmh 30.38 in1028.8 mb 0.02 in0.5 mm 0.00 in0.0 mm 0.02 in0.5 mm
09:20 AM 28.4°F-2.0°C 19.2°F-7.1°C 68% 4.0 mph W6.4 kmh W 7.0 mph11.3 kmh 30.38 in1028.8 mb 0.02 in0.5 mm 0.00 in0.0 mm 0.02 in0.5 mm
09:27 AM 28.8°F-1.8°C 19.6°F-6.9°C 68% 4.0 mph W6.4 kmh W 7.0 mph11.3 kmh 30.38 in1028.8 mb 0.02 in0.5 mm 0.00 in0.0 mm 0.03 in0.8 mm
09:34 AM 29.3°F-1.5°C 19.8°F-6.8°C 67% 3.0 mph W4.8 kmh W 5.0 mph8.0 kmh 30.38 in1028.8 mb 0.03 in0.8 mm 0.09 in2.3 mm 0.03 in0.8 mm
09:41 AM 29.5°F-1.4°C 19.8°F-6.8°C 67% 3.0 mph N4.8 kmh N 5.0 mph8.0 kmh 30.38 in1028.8 mb 0.04 in1.0 mm 0.09 in2.3 mm 0.04 in1.0 mm
09:48 AM 30.0°F-1.1°C 19.8°F-6.8°C 65% 3.0 mph N4.8 kmh N 5.0 mph8.0 kmh 30.38 in1028.8 mb 0.03 in0.8 mm 0.00 in0.0 mm 0.04 in1.0 mm
09:55 AM 30.0°F-1.1°C 19.8°F-6.8°C 65% 3.0 mph N4.8 kmh N 5.0 mph8.0 kmh 30.38 in1028.8 mb 0.04 in1.0 mm 0.09 in2.3 mm 0.05 in1.3 mm
10:02 AM 29.8°F-1.2°C 19.6°F-6.9°C 65% 3.0 mph N4.8 kmh N 5.0 mph8.0 kmh 30.38 in1028.8 mb 0.04 in1.0 mm 0.00 in0.0 mm 0.06 in1.5 mm
10:09 AM 30.4°F-0.9°C 20.3°F-6.5°C 66% 3.0 mph N4.8 kmh N 5.0 mph8.0 kmh 30.38 in1028.8 mb 0.04 in1.0 mm 0.00 in0.0 mm 0.06 in1.5 mm
10:16 AM 30.0°F-1.1°C 19.8°F-6.8°C 65% 3.0 mph N4.8 kmh N 7.0 mph11.3 kmh 30.38 in1028.8 mb 0.04 in1.0 mm 0.00 in0.0 mm 0.06 in1.5 mm
10:23 AM 29.7°F-1.3°C 18.7°F-7.4°C 63% 3.0 mph N4.8 kmh N 8.0 mph12.9 kmh 30.38 in1028.8 mb 0.05 in1.3 mm 0.09 in2.3 mm 0.07 in1.8 mm
10:30 AM 30.9°F-0.6°C 20.5°F-6.4°C 65% 3.0 mph N4.8 kmh N 8.0 mph12.9 kmh 30.39 in1029.1 mb 0.04 in1.0 mm 0.00 in0.0 mm 0.07 in1.8 mm
10:37 AM 31.6°F-0.2°C 21.2°F-6.0°C 65% 3.0 mph N4.8 kmh N 5.0 mph8.0 kmh 30.39 in1029.1 mb 0.05 in1.3 mm 0.09 in2.3 mm 0.08 in2.0 mm
10:44 AM 30.4°F-0.9°C 18.9°F-7.3°C 62% 4.0 mph N6.4 kmh N 5.0 mph8.0 kmh 30.39 in1029.1 mb 0.05 in1.3 mm 0.00 in0.0 mm 0.09 in2.3 mm
10:51 AM 31.3°F-0.4°C 21.2°F-6.0°C 66% 3.0 mph N4.8 kmh N 5.0 mph8.0 kmh 30.38 in1028.8 mb 0.06 in1.5 mm 0.09 in2.3 mm 0.09 in2.3 mm
10:58 AM 30.9°F-0.6°C 20.7°F-6.3°C 65% 4.0 mph NNW6.4 kmh NNW 7.0 mph11.3 kmh 30.38 in1028.8 mb 0.06 in1.5 mm 0.00 in0.0 mm 0.10 in2.5 mm
11:05 AM 30.9°F-0.6°C 19.6°F-6.9°C 62% 4.0 mph W6.4 kmh W 8.0 mph12.9 kmh 30.38 in1028.8 mb 0.05 in1.3 mm 0.00 in0.0 mm 0.10 in2.5 mm
11:12 AM 30.7°F-0.7°C 19.6°F-6.9°C 63% 4.0 mph WSW6.4 kmh WSW 7.0 mph11.3 kmh 30.38 in1028.8 mb 0.06 in1.5 mm 0.09 in2.3 mm 0.11 in2.8 mm
11:19 AM 31.8°F-0.1°C 20.7°F-6.3°C 63% 4.0 mph WSW6.4 kmh WSW 8.0 mph12.9 kmh 30.38 in1028.8 mb 0.06 in1.5 mm 0.00 in0.0 mm 0.12 in3.0 mm
11:26 AM 30.4°F-0.9°C 19.9°F-6.7°C 65% 4.0 mph WSW6.4 kmh WSW 8.0 mph12.9 kmh 30.38 in1028.8 mb 0.06 in1.5 mm 0.00 in0.0 mm 0.13 in3.3 mm
11:33 AM 31.5°F-0.3°C 19.6°F-6.9°C 61% 3.0 mph WSW4.8 kmh WSW 7.0 mph11.3 kmh 30.38 in1028.8 mb 0.06 in1.5 mm 0.00 in0.0 mm 0.13 in3.3 mm
11:40 AM 31.6°F-0.2°C 20.5°F-6.4°C 63% 4.0 mph SSW6.4 kmh SSW 13.0 mph20.9 kmh 30.38 in1028.8 mb 0.06 in1.5 mm 0.00 in0.0 mm 0.13 in3.3 mm
11:47 AM 32.4°F0.2°C 20.3°F-6.5°C 61% 5.0 mph SW8.0 kmh SW 13.0 mph20.9 kmh 30.37 in1028.4 mb 0.06 in1.5 mm 0.00 in0.0 mm 0.14 in3.6 mm
11:54 AM 32.5°F0.3°C 21.4°F-5.9°C 63% 4.0 mph SW6.4 kmh SW 11.0 mph17.7 kmh 30.37 in1028.4 mb 0.06 in1.5 mm 0.00 in0.0 mm 0.15 in3.8 mm
12:01 PM 32.4°F0.2°C 19.2°F-7.1°C 58% 5.0 mph WSW8.0 kmh WSW 11.0 mph17.7 kmh 30.37 in1028.4 mb 0.06 in1.5 mm 0.00 in0.0 mm 0.16 in4.1 mm
12:08 PM 33.4°F0.8°C 21.0°F-6.1°C 60% 4.0 mph WSW6.4 kmh WSW 12.0 mph19.3 kmh 30.37 in1028.4 mb 0.06 in1.5 mm 0.00 in0.0 mm 0.17 in4.3 mm
12:15 PM 33.4°F0.8°C 22.1°F-5.5°C 63% 4.0 mph SW6.4 kmh SW 12.0 mph19.3 kmh 30.36 in1028.1 mb 0.06 in1.5 mm 0.00 in0.0 mm 0.17 in4.3 mm
12:22 PM 33.3°F0.7°C 21.7°F-5.7°C 62% 5.0 mph WSW8.0 kmh WSW 13.0 mph20.9 kmh 30.36 in1028.1 mb 0.06 in1.5 mm 0.00 in0.0 mm 0.18 in4.6 mm
12:29 PM 34.3°F1.3°C 22.3°F-5.4°C 61% 4.0 mph WSW6.4 kmh WSW 13.0 mph20.9 kmh 30.36 in1028.1 mb 0.06 in1.5 mm 0.00 in0.0 mm 0.19 in4.8 mm
12:36 PM 33.4°F0.8°C 21.4°F-5.9°C 61% 7.0 mph SW11.3 kmh SW 13.0 mph20.9 kmh 30.36 in1028.1 mb 0.06 in1.5 mm 0.00 in0.0 mm 0.20 in5.1 mm
12:43 PM 34.7°F1.5°C 22.3°F-5.4°C 60% 4.0 mph SW6.4 kmh SW 9.0 mph14.5 kmh 30.36 in1028.1 mb 0.06 in1.5 mm 0.00 in0.0 mm 0.20 in5.1 mm
12:50 PM 34.2°F1.2°C 21.7°F-5.7°C 60% 5.0 mph SW8.0 kmh SW 12.0 mph19.3 kmh 30.36 in1028.1 mb 0.06 in1.5 mm 0.00 in0.0 mm 0.21 in5.3 mm
12:57 PM 35.4°F1.9°C 22.6°F-5.2°C 59% 5.0 mph WSW8.0 kmh WSW 12.0 mph19.3 kmh 30.36 in1028.1 mb 0.06 in1.5 mm 0.00 in0.0 mm 0.21 in5.3 mm
01:04 PM 33.8°F1.0°C 21.4°F-5.9°C 60% 4.0 mph SW6.4 kmh SW 9.0 mph14.5 kmh 30.35 in1027.8 mb 0.06 in1.5 mm 0.00 in0.0 mm 0.22 in5.6 mm
01:12 PM 36.1°F2.3°C 23.5°F-4.7°C 60% 5.0 mph WSW8.0 kmh WSW 9.0 mph14.5 kmh 30.35 in1027.8 mb 0.06 in1.5 mm 0.00 in0.0 mm 0.23 in5.8 mm
01:18 PM 35.8°F2.1°C 23.7°F-4.6°C 61% 5.0 mph WSW8.0 kmh WSW 15.0 mph24.1 kmh 30.35 in1027.8 mb 0.05 in1.3 mm 0.00 in0.0 mm 0.23 in5.8 mm
01:25 PM 36.3°F2.4°C 22.1°F-5.5°C 56% 5.0 mph WSW8.0 kmh WSW 16.0 mph25.7 kmh 30.34 in1027.4 mb 0.06 in1.5 mm 0.09 in2.3 mm 0.24 in6.1 mm
01:32 PM 35.4°F1.9°C 21.7°F-5.7°C 57% 5.0 mph WSW8.0 kmh WSW 16.0 mph25.7 kmh 30.34 in1027.4 mb 0.05 in1.3 mm 0.00 in0.0 mm 0.24 in6.1 mm
01:39 PM 34.9°F1.6°C 23.2°F-4.9°C 62% 4.0 mph WSW6.4 kmh WSW 12.0 mph19.3 kmh 30.34 in1027.4 mb 0.04 in1.0 mm 0.00 in0.0 mm 0.24 in6.1 mm
01:46 PM 34.3°F1.3°C 21.6°F-5.8°C 59% 5.0 mph WSW8.0 kmh WSW 12.0 mph19.3 kmh 30.34 in1027.4 mb 0.04 in1.0 mm 0.00 in0.0 mm 0.24 in6.1 mm
01:53 PM 35.8°F2.1°C 21.2°F-6.0°C 55% 5.0 mph WSW8.0 kmh WSW 13.0 mph20.9 kmh 30.33 in1027.1 mb 0.03 in0.8 mm 0.00 in0.0 mm 0.24 in6.1 mm
02:00 PM 34.3°F1.3°C 21.2°F-6.0°C 58% 5.0 mph SW8.0 kmh SW 13.0 mph20.9 kmh 30.33 in1027.1 mb 0.02 in0.5 mm 0.00 in0.0 mm 0.24 in6.1 mm
02:07 PM 36.1°F2.3°C 24.3°F-4.3°C 62% 4.0 mph SW6.4 kmh SW 12.0 mph19.3 kmh 30.33 in1027.1 mb 0.02 in0.5 mm 0.00 in0.0 mm 0.24 in6.1 mm
02:14 PM 36.0°F2.2°C 21.2°F-6.0°C 55% 4.0 mph WSW6.4 kmh WSW 9.0 mph14.5 kmh 30.32 in1026.8 mb 0.02 in0.5 mm 0.00 in0.0 mm 0.25 in6.4 mm
02:21 PM 36.9°F2.7°C 25.2°F-3.8°C 62% 5.0 mph WSW8.0 kmh WSW 12.0 mph19.3 kmh 30.32 in1026.8 mb 0.02 in0.5 mm 0.00 in0.0 mm 0.25 in6.4 mm
02:28 PM 37.0°F2.8°C 23.5°F-4.7°C 58% 5.0 mph WNW8.0 kmh WNW 9.0 mph14.5 kmh 30.32 in1026.8 mb 0.02 in0.5 mm 0.00 in0.0 mm 0.25 in6.4 mm
02:35 PM 34.9°F1.6°C 21.0°F-6.1°C 57% 5.0 mph NW8.0 kmh NW 9.0 mph14.5 kmh 30.32 in1026.8 mb 0.02 in0.5 mm 0.00 in0.0 mm 0.26 in6.6 mm
02:42 PM 36.0°F2.2°C 22.3°F-5.4°C 57% 5.0 mph SW8.0 kmh SW 12.0 mph19.3 kmh 30.32 in1026.8 mb 0.02 in0.5 mm 0.00 in0.0 mm 0.26 in6.6 mm
02:49 PM 35.2°F1.8°C 24.6°F-4.1°C 65% 5.0 mph SW8.0 kmh SW 9.0 mph14.5 kmh 30.31 in1026.4 mb 0.02 in0.5 mm 0.00 in0.0 mm 0.26 in6.6 mm
02:56 PM 37.2°F2.9°C 22.1°F-5.5°C 54% 4.0 mph WSW6.4 kmh WSW 12.0 mph19.3 kmh 30.31 in1026.4 mb 0.02 in0.5 mm 0.00 in0.0 mm 0.26 in6.6 mm
03:03 PM 35.1°F1.7°C 21.4°F-5.9°C 57% 7.0 mph WSW11.3 kmh WSW 15.0 mph24.1 kmh 30.31 in1026.4 mb 0.02 in0.5 mm 0.00 in0.0 mm 0.26 in6.6 mm
03:10 PM 35.2°F1.8°C 21.6°F-5.8°C 57% 7.0 mph SW11.3 kmh SW 15.0 mph24.1 kmh 30.31 in1026.4 mb 0.01 in0.3 mm 0.00 in0.0 mm 0.26 in6.6 mm
03:17 PM 35.8°F2.1°C 22.8°F-5.1°C 59% 7.0 mph SW11.3 kmh SW 15.0 mph24.1 kmh 30.30 in1026.1 mb 0.01 in0.3 mm 0.00 in0.0 mm 0.26 in6.6 mm
03:24 PM 35.8°F2.1°C 22.1°F-5.5°C 57% 7.0 mph SW11.3 kmh SW 16.0 mph25.7 kmh 30.30 in1026.1 mb 0.01 in0.3 mm 0.00 in0.0 mm 0.26 in6.6 mm
03:31 PM 36.9°F2.7°C 22.6°F-5.2°C 56% 7.0 mph SSW11.3 kmh SSW 16.0 mph25.7 kmh 30.30 in1026.1 mb 0.00 in0.0 mm 0.00 in0.0 mm 0.26 in6.6 mm
03:38 PM 36.3°F2.4°C 22.1°F-5.5°C 56% 5.0 mph SW8.0 kmh SW 13.0 mph20.9 kmh 30.30 in1026.1 mb 0.00 in0.0 mm 0.00 in0.0 mm 0.26 in6.6 mm
03:45 PM 36.1°F2.3°C 23.7°F-4.6°C 60% 4.0 mph SW6.4 kmh SW 8.0 mph12.9 kmh 30.30 in1026.1 mb 0.00 in0.0 mm 0.00 in0.0 mm 0.26 in6.6 mm
03:52 PM 36.3°F2.4°C 23.0°F-5.0°C 58% 5.0 mph SSW8.0 kmh SSW 16.0 mph25.7 kmh 30.30 in1026.1 mb 0.00 in0.0 mm 0.00 in0.0 mm 0.26 in6.6 mm
03:59 PM 35.8°F2.1°C 22.1°F-5.5°C 57% 5.0 mph SSW8.0 kmh SSW 16.0 mph25.7 kmh 30.30 in1026.1 mb 0.00 in0.0 mm 0.00 in0.0 mm 0.26 in6.6 mm
04:06 PM 36.3°F2.4°C 23.4°F-4.8°C 59% 4.0 mph SSW6.4 kmh SSW 12.0 mph19.3 kmh 30.29 in1025.7 mb 0.00 in0.0 mm 0.00 in0.0 mm 0.26 in6.6 mm
04:13 PM 37.8°F3.2°C 23.9°F-4.5°C 57% 4.0 mph SW6.4 kmh SW 13.0 mph20.9 kmh 30.29 in1025.7 mb 0.00 in0.0 mm 0.00 in0.0 mm 0.26 in6.6 mm
04:20 PM 36.9°F2.7°C 22.1°F-5.5°C 55% 5.0 mph W8.0 kmh W 17.0 mph27.4 kmh 30.29 in1025.7 mb 0.00 in0.0 mm 0.00 in0.0 mm 0.26 in6.6 mm
04:27 PM 36.5°F2.5°C 23.2°F-4.9°C 58% 7.0 mph SSW11.3 kmh SSW 17.0 mph27.4 kmh 30.29 in1025.7 mb 0.00 in0.0 mm 0.00 in0.0 mm 0.26 in6.6 mm
04:34 PM 36.3°F2.4°C 23.0°F-5.0°C 58% 7.0 mph SW11.3 kmh SW 13.0 mph20.9 kmh 30.28 in1025.4 mb 0.00 in0.0 mm 0.00 in0.0 mm 0.26 in6.6 mm
04:41 PM 35.4°F1.9°C 23.0°F-5.0°C 60% 8.0 mph SSW12.9 kmh SSW 17.0 mph27.4 kmh 30.29 in1025.7 mb 0.00 in0.0 mm 0.00 in0.0 mm 0.26 in6.6 mm
04:48 PM 36.0°F2.2°C 23.7°F-4.6°C 61% 7.0 mph SSW11.3 kmh SSW 12.0 mph19.3 kmh 30.28 in1025.4 mb 0.00 in0.0 mm 0.00 in0.0 mm 0.26 in6.6 mm
04:55 PM 35.8°F2.1°C 24.4°F-4.2°C 63% 5.0 mph SSW8.0 kmh SSW 15.0 mph24.1 kmh 30.29 in1025.7 mb 0.00 in0.0 mm 0.00 in0.0 mm 0.26 in6.6 mm
05:02 PM 36.0°F2.2°C 24.3°F-4.3°C 62% 7.0 mph S11.3 kmh S 15.0 mph24.1 kmh 30.28 in1025.4 mb 0.00 in0.0 mm 0.00 in0.0 mm 0.26 in6.6 mm
05:09 PM 35.6°F2.0°C 24.3°F-4.3°C 63% 7.0 mph S11.3 kmh S 17.0 mph27.4 kmh 30.28 in1025.4 mb 0.00 in0.0 mm 0.00 in0.0 mm 0.26 in6.6 mm
05:16 PM 35.8°F2.1°C 23.9°F-4.5°C 62% 4.0 mph SSW6.4 kmh SSW 11.0 mph17.7 kmh 30.28 in1025.4 mb 0.00 in0.0 mm 0.00 in0.0 mm 0.26 in6.6 mm
05:23 PM 35.8°F2.1°C 23.9°F-4.5°C 62% 5.0 mph SSW8.0 kmh SSW 13.0 mph20.9 kmh 30.28 in1025.4 mb 0.00 in0.0 mm 0.00 in0.0 mm 0.26 in6.6 mm
05:30 PM 35.8°F2.1°C 23.5°F-4.7°C 61% 5.0 mph SSW8.0 kmh SSW 13.0 mph20.9 kmh 30.28 in1025.4 mb 0.00 in0.0 mm 0.00 in0.0 mm 0.26 in6.6 mm
05:37 PM 35.4°F1.9°C 23.4°F-4.8°C 61% 7.0 mph SSW11.3 kmh SSW 13.0 mph20.9 kmh 30.28 in1025.4 mb 0.00 in0.0 mm 0.00 in0.0 mm 0.26 in6.6 mm
05:44 PM 35.6°F2.0°C 23.0°F-5.0°C 60% 7.0 mph S11.3 kmh S 13.0 mph20.9 kmh 30.27 in1025.1 mb 0.00 in0.0 mm 0.00 in0.0 mm 0.26 in6.6 mm
05:51 PM 35.4°F1.9°C 23.4°F-4.8°C 61% 5.0 mph S8.0 kmh S 15.0 mph24.1 kmh 30.27 in1025.1 mb 0.00 in0.0 mm 0.00 in0.0 mm 0.26 in6.6 mm
05:58 PM 35.2°F1.8°C 23.2°F-4.9°C 61% 5.0 mph S8.0 kmh S 15.0 mph24.1 kmh 30.27 in1025.1 mb 0.00 in0.0 mm 0.00 in0.0 mm 0.26 in6.6 mm
06:05 PM 35.1°F1.7°C 23.4°F-4.8°C 62% 5.0 mph S8.0 kmh S 15.0 mph24.1 kmh 30.27 in1025.1 mb 0.00 in0.0 mm 0.00 in0.0 mm 0.26 in6.6 mm
06:12 PM 34.7°F1.5°C 23.0°F-5.0°C 62% 4.0 mph S6.4 kmh S 9.0 mph14.5 kmh 30.27 in1025.1 mb 0.00 in0.0 mm 0.00 in0.0 mm 0.26 in6.6 mm
06:19 PM 34.3°F1.3°C 22.6°F-5.2°C 62% 5.0 mph SSW8.0 kmh SSW 13.0 mph20.9 kmh 30.27 in1025.1 mb 0.00 in0.0 mm 0.00 in0.0 mm 0.26 in6.6 mm
06:26 PM 34.2°F1.2°C 22.5°F-5.3°C 62% 4.0 mph S6.4 kmh S 9.0 mph14.5 kmh 30.27 in1025.1 mb 0.00 in0.0 mm 0.00 in0.0 mm 0.26 in6.6 mm
06:33 PM 34.0°F1.1°C 22.3°F-5.4°C 62% 4.0 mph S6.4 kmh S 12.0 mph19.3 kmh 30.28 in1025.4 mb 0.00 in0.0 mm 0.00 in0.0 mm 0.26 in6.6 mm
06:40 PM 33.8°F1.0°C 22.1°F-5.5°C 62% 5.0 mph S8.0 kmh S 15.0 mph24.1 kmh 30.27 in1025.1 mb 0.00 in0.0 mm 0.00 in0.0 mm 0.26 in6.6 mm
06:47 PM 33.4°F0.8°C 22.1°F-5.5°C 63% 3.0 mph S4.8 kmh S 8.0 mph12.9 kmh 30.27 in1025.1 mb 0.00 in0.0 mm 0.00 in0.0 mm 0.26 in6.6 mm
06:54 PM 33.3°F0.7°C 22.3°F-5.4°C 64% 3.0 mph S4.8 kmh S 8.0 mph12.9 kmh 30.27 in1025.1 mb 0.00 in0.0 mm 0.00 in0.0 mm 0.26 in6.6 mm
07:01 PM 33.1°F0.6°C 22.1°F-5.5°C 64% 4.0 mph S6.4 kmh S 7.0 mph11.3 kmh 30.27 in1025.1 mb 0.00 in0.0 mm 0.00 in0.0 mm 0.26 in6.6 mm
07:08 PM 32.7°F0.4°C 21.6°F-5.8°C 63% 4.0 mph S6.4 kmh S 8.0 mph12.9 kmh 30.27 in1025.1 mb 0.00 in0.0 mm 0.00 in0.0 mm 0.26 in6.6 mm
07:15 PM 32.5°F0.3°C 21.7°F-5.7°C 64% 4.0 mph S6.4 kmh S 9.0 mph14.5 kmh 30.27 in1025.1 mb 0.00 in0.0 mm 0.00 in0.0 mm 0.26 in6.6 mm
07:22 PM 32.2°F0.1°C 21.4°F-5.9°C 64% 4.0 mph S6.4 kmh S 12.0 mph19.3 kmh 30.27 in1025.1 mb 0.00 in0.0 mm 0.00 in0.0 mm 0.26 in6.6 mm
07:29 PM 32.0°F0.0°C 20.8°F-6.2°C 63% 4.0 mph S6.4 kmh S 9.0 mph14.5 kmh 30.27 in1025.1 mb 0.00 in0.0 mm 0.00 in0.0 mm 0.26 in6.6 mm
07:36 PM 31.8°F-0.1°C 21.0°F-6.1°C 64% 3.0 mph S4.8 kmh S 8.0 mph12.9 kmh 30.27 in1025.1 mb 0.00 in0.0 mm 0.00 in0.0 mm 0.26 in6.6 mm
07:43 PM 31.5°F-0.3°C 20.7°F-6.3°C 64% 3.0 mph S4.8 kmh S 7.0 mph11.3 kmh 30.27 in1025.1 mb 0.00 in0.0 mm 0.00 in0.0 mm 0.26 in6.6 mm
07:50 PM 31.3°F-0.4°C 20.5°F-6.4°C 64% 3.0 mph S4.8 kmh S 7.0 mph11.3 kmh 30.27 in1025.1 mb 0.00 in0.0 mm 0.00 in0.0 mm 0.26 in6.6 mm
07:57 PM 30.9°F-0.6°C 20.7°F-6.3°C 65% 1.0 mph S1.6 kmh S 4.0 mph6.4 kmh 30.27 in1025.1 mb 0.00 in0.0 mm 0.00 in0.0 mm 0.26 in6.6 mm
08:04 PM 30.7°F-0.7°C 20.5°F-6.4°C 65% 3.0 mph S4.8 kmh S 5.0 mph8.0 kmh 30.27 in1025.1 mb 0.00 in0.0 mm 0.00 in0.0 mm 0.26 in6.6 mm
08:11 PM 30.7°F-0.7°C 20.5°F-6.4°C 65% 3.0 mph S4.8 kmh S 7.0 mph11.3 kmh 30.27 in1025.1 mb 0.00 in0.0 mm 0.00 in0.0 mm 0.26 in6.6 mm
08:18 PM 30.6°F-0.8°C 20.7°F-6.3°C 66% 1.0 mph S1.6 kmh S 7.0 mph11.3 kmh 30.27 in1025.1 mb 0.00 in0.0 mm 0.00 in0.0 mm 0.26 in6.6 mm
08:25 PM 30.6°F-0.8°C 20.7°F-6.3°C 66% 1.0 mph S1.6 kmh S 5.0 mph8.0 kmh 30.27 in1025.1 mb 0.00 in0.0 mm 0.00 in0.0 mm 0.26 in6.6 mm
08:32 PM 30.6°F-0.8°C 20.5°F-6.4°C 66% 1.0 mph S1.6 kmh S 4.0 mph6.4 kmh 30.27 in1025.1 mb 0.00 in0.0 mm 0.00 in0.0 mm 0.26 in6.6 mm
08:39 PM 30.6°F-0.8°C 20.5°F-6.4°C 66% 1.0 mph S1.6 kmh S 4.0 mph6.4 kmh 30.27 in1025.1 mb 0.00 in0.0 mm 0.00 in0.0 mm 0.26 in6.6 mm
08:46 PM 30.6°F-0.8°C 20.8°F-6.2°C 67% 1.0 mph S1.6 kmh S 4.0 mph6.4 kmh 30.27 in1025.1 mb 0.00 in0.0 mm 0.00 in0.0 mm 0.26 in6.6 mm
08:53 PM 30.6°F-0.8°C 21.0°F-6.1°C 67% 1.0 mph SSE1.6 kmh SSE 3.0 mph4.8 kmh 30.27 in1025.1 mb 0.00 in0.0 mm 0.00 in0.0 mm 0.26 in6.6 mm
09:00 PM 30.7°F-0.7°C 20.8°F-6.2°C 66% 1.0 mph SSE1.6 kmh SSE 4.0 mph6.4 kmh 30.27 in1025.1 mb 0.00 in0.0 mm 0.00 in0.0 mm 0.26 in6.6 mm
09:07 PM 30.9°F-0.6°C 21.2°F-6.0°C 67% 1.0 mph S1.6 kmh S 5.0 mph8.0 kmh 30.27 in1025.1 mb 0.00 in0.0 mm 0.00 in0.0 mm 0.26 in6.6 mm
09:14 PM 30.9°F-0.6°C 21.4°F-5.9°C 67% 3.0 mph S4.8 kmh S 7.0 mph11.3 kmh 30.27 in1025.1 mb 0.00 in0.0 mm 0.00 in0.0 mm 0.26 in6.6 mm
09:21 PM 30.9°F-0.6°C 21.7°F-5.7°C 68% 3.0 mph S4.8 kmh S 7.0 mph11.3 kmh 30.27 in1025.1 mb 0.00 in0.0 mm 0.00 in0.0 mm 0.26 in6.6 mm
09:28 PM 30.9°F-0.6°C 21.7°F-5.7°C 68% 3.0 mph S4.8 kmh S 5.0 mph8.0 kmh 30.26 in1024.7 mb 0.00 in0.0 mm 0.00 in0.0 mm 0.26 in6.6 mm
09:35 PM 30.9°F-0.6°C 21.7°F-5.7°C 68% 3.0 mph S4.8 kmh S 7.0 mph11.3 kmh 30.26 in1024.7 mb 0.00 in0.0 mm 0.00 in0.0 mm 0.26 in6.6 mm
09:42 PM 30.9°F-0.6°C 21.7°F-5.7°C 68% 4.0 mph S6.4 kmh S 9.0 mph14.5 kmh 30.26 in1024.7 mb 0.00 in0.0 mm 0.00 in0.0 mm 0.26 in6.6 mm
09:49 PM 30.9°F-0.6°C 22.1°F-5.5°C 69% 4.0 mph S6.4 kmh S 8.0 mph12.9 kmh 30.26 in1024.7 mb 0.00 in0.0 mm 0.00 in0.0 mm 0.26 in6.6 mm
09:56 PM 30.9°F-0.6°C 21.9°F-5.6°C 69% 3.0 mph S4.8 kmh S 7.0 mph11.3 kmh 30.26 in1024.7 mb 0.00 in0.0 mm 0.00 in0.0 mm 0.26 in6.6 mm
10:03 PM 30.7°F-0.7°C 21.7°F-5.7°C 69% 3.0 mph S4.8 kmh S 7.0 mph11.3 kmh 30.26 in1024.7 mb 0.00 in0.0 mm 0.00 in0.0 mm 0.26 in6.6 mm
10:10 PM 30.9°F-0.6°C 21.9°F-5.6°C 69% 3.0 mph S4.8 kmh S 5.0 mph8.0 kmh 30.26 in1024.7 mb 0.00 in0.0 mm 0.00 in0.0 mm 0.26 in6.6 mm
10:17 PM 30.7°F-0.7°C 21.7°F-5.7°C 69% 1.0 mph S1.6 kmh S 7.0 mph11.3 kmh 30.26 in1024.7 mb 0.00 in0.0 mm 0.00 in0.0 mm 0.26 in6.6 mm
10:24 PM 30.9°F-0.6°C 22.3°F-5.4°C 70% 3.0 mph S4.8 kmh S 7.0 mph11.3 kmh 30.26 in1024.7 mb 0.00 in0.0 mm 0.00 in0.0 mm 0.26 in6.6 mm
10:31 PM 31.3°F-0.4°C 22.3°F-5.4°C 69% 3.0 mph S4.8 kmh S 7.0 mph11.3 kmh 30.25 in1024.4 mb 0.00 in0.0 mm 0.00 in0.0 mm 0.26 in6.6 mm
10:38 PM 31.3°F-0.4°C 22.3°F-5.4°C 69% 3.0 mph S4.8 kmh S 7.0 mph11.3 kmh 30.25 in1024.4 mb 0.00 in0.0 mm 0.00 in0.0 mm 0.26 in6.6 mm
10:45 PM 31.5°F-0.3°C 22.1°F-5.5°C 68% 3.0 mph S4.8 kmh S 7.0 mph11.3 kmh 30.25 in1024.4 mb 0.00 in0.0 mm 0.00 in0.0 mm 0.26 in6.6 mm
10:52 PM 31.5°F-0.3°C 22.1°F-5.5°C 68% 3.0 mph S4.8 kmh S 7.0 mph11.3 kmh 30.25 in1024.4 mb 0.00 in0.0 mm 0.00 in0.0 mm 0.26 in6.6 mm
10:59 PM 31.6°F-0.2°C 22.3°F-5.4°C 68% 3.0 mph S4.8 kmh S 7.0 mph11.3 kmh 30.25 in1024.4 mb 0.00 in0.0 mm 0.00 in0.0 mm 0.26 in6.6 mm
11:06 PM 31.6°F-0.2°C 22.3°F-5.4°C 68% 3.0 mph S4.8 kmh S 7.0 mph11.3 kmh 30.25 in1024.4 mb 0.00 in0.0 mm 0.00 in0.0 mm 0.10 in2.5 mm
11:13 PM 31.8°F-0.1°C 22.5°F-5.3°C 68% 1.0 mph S1.6 kmh S 5.0 mph8.0 kmh 30.25 in1024.4 mb 0.00 in0.0 mm 0.00 in0.0 mm 0.10 in2.5 mm
11:20 PM 31.8°F-0.1°C 22.1°F-5.5°C 67% 3.0 mph S4.8 kmh S 5.0 mph8.0 kmh 30.24 in1024.0 mb 0.00 in0.0 mm 0.00 in0.0 mm 0.10 in2.5 mm
11:27 PM 31.6°F-0.2°C 21.9°F-5.6°C 67% 3.0 mph S4.8 kmh S 5.0 mph8.0 kmh 30.24 in1024.0 mb 0.00 in0.0 mm 0.00 in0.0 mm 0.10 in2.5 mm
11:34 PM 31.6°F-0.2°C 22.3°F-5.4°C 68% 3.0 mph S4.8 kmh S 8.0 mph12.9 kmh 30.24 in1024.0 mb 0.00 in0.0 mm 0.00 in0.0 mm 0.10 in2.5 mm
11:41 PM 31.8°F-0.1°C 22.1°F-5.5°C 67% 3.0 mph S4.8 kmh S 8.0 mph12.9 kmh 30.24 in1024.0 mb 0.00 in0.0 mm 0.00 in0.0 mm 0.10 in2.5 mm
11:48 PM 32.0°F0.0°C 22.3°F-5.4°C 67% 3.0 mph SSE4.8 kmh SSE 7.0 mph11.3 kmh 30.24 in1024.0 mb 0.00 in0.0 mm 0.00 in0.0 mm 0.10 in2.5 mm
11:55 PM 32.2°F0.1°C 22.5°F-5.3°C 67% 3.0 mph SSE4.8 kmh SSE 5.0 mph8.0 kmh 30.24 in1024.0 mb 0.00 in0.0 mm 0.00 in0.0 mm 0.10 in2.5 mm